createdAt,value
2023-05-22T00:02:14.090Z,99840.31
2023-05-22T00:04:41.615Z,99839.03
2023-05-22T00:07:08.808Z,99834.88
2023-05-22T00:09:36.109Z,99840.34
2023-05-22T00:12:03.633Z,99840.97
2023-05-22T00:14:30.845Z,99843.66
2023-05-22T00:16:58.568Z,99840.44
2023-05-22T00:19:26.570Z,99840.44
2023-05-22T00:21:54.327Z,99843.66
2023-05-22T00:24:21.762Z,99840.06
2023-05-22T00:26:49.266Z,99835.56
2023-05-22T00:29:16.500Z,99828.59
2023-05-22T00:31:43.672Z,99831.53
2023-05-22T00:34:11.267Z,99830.53
2023-05-22T00:36:38.521Z,99831.94
2023-05-22T00:39:06.329Z,99829.53
2023-05-22T00:41:34.085Z,99833.53
2023-05-22T00:44:01.471Z,99828.50
2023-05-22T00:46:28.920Z,99832.16
2023-05-22T00:48:56.717Z,99828.66
2023-05-22T00:51:24.153Z,99833.91
2023-05-22T00:53:51.367Z,99838.41
2023-05-22T00:56:18.909Z,99833.91
2023-05-22T00:58:46.169Z,99838.75
2023-05-22T01:01:13.832Z,99835.38
2023-05-22T01:03:44.871Z,99846.44
2023-05-22T01:06:18.031Z,99838.78
2023-05-22T01:08:46.054Z,99832.13
2023-05-22T01:11:25.666Z,99836.13
2023-05-22T01:14:31.955Z,99831.22
2023-05-22T01:17:24.699Z,99838.12
2023-05-22T01:20:07.315Z,99832.63
2023-05-22T01:23:08.891Z,99834.72
2023-05-22T01:25:58.492Z,99830.31
2023-05-22T01:28:50.823Z,99826.91
2023-05-22T01:31:19.684Z,99832.91
2023-05-22T01:33:48.709Z,99841.75
2023-05-22T01:36:16.298Z,99838.00
2023-05-22T01:38:43.816Z,99832.34
2023-05-22T01:41:11.099Z,99839.09
2023-05-22T01:43:38.361Z,99828.13
2023-05-22T01:46:06.978Z,99827.69
2023-05-22T01:48:35.348Z,99831.81
2023-05-22T01:51:08.542Z,99820.13
2023-05-22T01:53:39.798Z,99820.41
2023-05-22T01:56:08.081Z,99814.56
2023-05-22T01:58:53.253Z,99812.31
2023-05-22T02:01:20.895Z,99819.41
2023-05-22T02:03:48.477Z,99816.03
2023-05-22T02:06:16.559Z,99807.91
2023-05-22T02:08:43.793Z,99807.72
2023-05-22T02:11:11.364Z,99813.03
2023-05-22T02:13:38.603Z,99807.03
2023-05-22T02:16:06.330Z,99804.50
2023-05-22T02:18:33.922Z,99801.03
2023-05-22T02:21:02.648Z,99804.09
2023-05-22T02:23:31.247Z,99806.75
2023-05-22T02:25:58.544Z,99804.97
2023-05-22T02:28:26.974Z,99805.63
2023-05-22T02:30:54.480Z,99795.28
2023-05-22T02:33:21.785Z,99803.50
2023-05-22T02:35:49.630Z,99812.16
2023-05-22T02:38:17.213Z,99797.44
2023-05-22T02:40:45.019Z,99797.41
2023-05-22T02:43:12.260Z,99800.69
2023-05-22T02:45:39.994Z,99799.22
2023-05-22T02:48:07.444Z,99800.75
2023-05-22T02:50:34.966Z,99798.53
2023-05-22T02:53:02.728Z,99798.00
2023-05-22T02:55:30.496Z,99796.84
2023-05-22T02:57:57.935Z,99801.47
2023-05-22T03:00:25.902Z,99796.81
2023-05-22T03:02:55.366Z,99798.47
2023-05-22T03:05:23.224Z,99795.34
2023-05-22T03:07:53.003Z,99794.91
2023-05-22T03:10:20.249Z,99805.72
2023-05-22T03:12:48.166Z,99794.63
2023-05-22T03:15:15.960Z,99810.34
2023-05-22T03:17:43.541Z,99805.03
2023-05-22T03:20:15.011Z,99803.16
2023-05-22T03:22:43.862Z,99794.91
2023-05-22T03:25:11.467Z,99791.75
2023-05-22T03:27:41.131Z,99796.69
2023-05-22T03:30:09.140Z,99797.56
2023-05-22T03:32:38.087Z,99800.28
2023-05-22T03:35:06.408Z,99801.31
2023-05-22T03:37:34.449Z,99798.34
2023-05-22T03:40:02.127Z,99803.59
2023-05-22T03:42:29.684Z,99808.16
2023-05-22T03:44:57.683Z,99802.28
2023-05-22T03:47:25.954Z,99797.13
2023-05-22T03:49:53.429Z,99797.78
2023-05-22T03:52:22.764Z,99786.75
2023-05-22T03:54:50.253Z,99790.28
2023-05-22T03:57:19.973Z,99797.72
2023-05-22T03:59:47.787Z,99790.50
2023-05-22T04:02:17.118Z,99798.88
2023-05-22T04:04:47.478Z,99792.56
2023-05-22T04:07:15.023Z,99796.47
2023-05-22T04:09:42.444Z,99792.31
2023-05-22T04:12:10.513Z,99796.34
2023-05-22T04:14:37.969Z,99794.63
2023-05-22T04:17:05.435Z,99802.22
2023-05-22T04:19:33.263Z,99796.84
2023-05-22T04:22:00.904Z,99793.00
2023-05-22T04:24:28.368Z,99795.06
2023-05-22T04:26:56.229Z,99795.25
2023-05-22T04:29:24.365Z,99793.44
2023-05-22T04:31:54.426Z,99796.16
2023-05-22T04:34:22.223Z,99806.59
2023-05-22T04:36:49.747Z,99810.97
2023-05-22T04:39:18.409Z,99813.91
2023-05-22T04:41:46.351Z,99811.09
2023-05-22T04:44:14.379Z,99804.41
2023-05-22T04:46:42.372Z,99805.00
2023-05-22T04:49:10.507Z,99815.31
2023-05-22T04:51:37.971Z,99815.44
2023-05-22T04:54:06.322Z,99812.91
2023-05-22T04:56:36.880Z,99808.41
2023-05-22T04:59:05.665Z,99812.03
2023-05-22T05:01:35.174Z,99804.94
2023-05-22T05:04:03.929Z,99801.19
2023-05-22T05:06:31.524Z,99806.88
2023-05-22T05:08:59.158Z,99803.94
2023-05-22T05:11:26.622Z,99810.69
2023-05-22T05:13:54.179Z,99809.75
2023-05-22T05:16:23.364Z,99808.63
2023-05-22T05:18:52.018Z,99809.47
2023-05-22T05:21:21.395Z,99818.44
2023-05-22T05:23:49.154Z,99822.47
2023-05-22T05:26:16.630Z,99817.69
2023-05-22T05:28:44.227Z,99813.84
2023-05-22T05:31:12.984Z,99814.44
2023-05-22T05:33:42.828Z,99819.91
2023-05-22T05:36:10.980Z,99820.38
2023-05-22T05:38:38.867Z,99817.69
2023-05-22T05:41:07.074Z,99821.66
2023-05-22T05:43:35.355Z,99831.00
2023-05-22T05:46:03.718Z,99829.16
2023-05-22T05:48:31.364Z,99826.25
2023-05-22T05:50:59.220Z,99831.38
2023-05-22T05:53:28.811Z,99836.97
2023-05-22T05:55:56.648Z,99832.56
2023-05-22T05:58:24.118Z,99836.00
2023-05-22T06:00:53.794Z,99831.66
2023-05-22T06:03:21.793Z,99824.75
2023-05-22T06:05:49.907Z,99827.63
2023-05-22T06:08:19.930Z,99826.97
2023-05-22T06:10:48.256Z,99835.06
2023-05-22T06:13:16.303Z,99827.28
2023-05-22T06:15:43.866Z,99820.19
2023-05-22T06:18:11.891Z,99820.47
2023-05-22T06:20:39.777Z,99822.78
2023-05-22T06:23:07.755Z,99823.25
2023-05-22T06:25:35.560Z,99819.81
2023-05-22T06:28:06.059Z,99821.88
2023-05-22T06:30:40.065Z,99820.81
2023-05-22T06:33:13.035Z,99817.91
2023-05-22T06:35:42.034Z,99819.41
2023-05-22T06:38:10.333Z,99818.72
2023-05-22T06:40:38.248Z,99819.16
2023-05-22T06:43:06.265Z,99815.63
2023-05-22T06:45:34.339Z,99823.66
2023-05-22T06:48:02.571Z,99825.78
2023-05-22T06:50:31.582Z,99831.84
2023-05-22T06:52:59.379Z,99833.72
2023-05-22T06:55:27.097Z,99833.87
2023-05-22T06:57:55.921Z,99834.37
2023-05-22T07:00:24.116Z,99834.75
2023-05-22T07:02:53.069Z,99834.03
2023-05-22T07:05:20.823Z,99833.59
2023-05-22T07:07:49.043Z,99828.63
2023-05-22T07:10:16.471Z,99824.09
2023-05-22T07:12:43.981Z,99830.09
2023-05-22T07:15:13.525Z,99830.16
2023-05-22T07:17:41.944Z,99834.00
2023-05-22T07:20:10.712Z,99825.31
2023-05-22T07:22:38.681Z,99830.22
2023-05-22T07:25:06.662Z,99832.50
2023-05-22T07:27:34.069Z,99838.75
2023-05-22T07:30:01.986Z,99837.50
2023-05-22T07:32:30.006Z,99825.59
2023-05-22T07:34:57.610Z,99834.44
2023-05-22T07:37:25.273Z,99830.16
2023-05-22T07:39:52.489Z,99834.63
2023-05-22T07:42:20.172Z,99827.63
2023-05-22T07:44:48.440Z,99828.09
2023-05-22T07:47:16.059Z,99824.28
2023-05-22T07:49:43.820Z,99823.06
2023-05-22T07:52:11.710Z,99819.69
2023-05-22T07:54:39.578Z,99826.03
2023-05-22T07:57:08.251Z,99826.37
2023-05-22T07:59:37.767Z,99826.72
2023-05-22T08:02:05.189Z,99825.69
2023-05-22T08:04:32.789Z,99825.75
2023-05-22T08:07:00.225Z,99827.84
2023-05-22T08:09:27.466Z,99821.69
2023-05-22T08:11:55.022Z,99824.53
2023-05-22T08:14:22.359Z,99826.00
2023-05-22T08:16:49.576Z,99825.22
2023-05-22T08:19:17.248Z,99825.47
2023-05-22T08:21:44.540Z,99828.66
2023-05-22T08:24:11.928Z,99826.97
2023-05-22T08:26:40.450Z,99824.06
2023-05-22T08:29:07.695Z,99824.13
2023-05-22T08:31:36.020Z,99813.38
2023-05-22T08:34:04.915Z,99819.78
2023-05-22T08:36:34.096Z,99812.97
2023-05-22T08:39:01.940Z,99815.94
2023-05-22T08:41:29.806Z,99821.13
2023-05-22T08:43:57.433Z,99819.38
2023-05-22T08:46:29.198Z,99813.88
2023-05-22T08:48:57.085Z,99821.06
2023-05-22T08:51:28.328Z,99824.91
2023-05-22T08:53:56.128Z,99816.97
2023-05-22T08:56:23.617Z,99814.62
2023-05-22T08:58:51.263Z,99820.72
2023-05-22T09:01:18.474Z,99816.91
2023-05-22T09:03:47.175Z,99822.66
2023-05-22T09:06:14.766Z,99826.19
2023-05-22T09:08:42.886Z,99817.25
2023-05-22T09:11:11.455Z,99821.19
2023-05-22T09:13:39.011Z,99816.63
2023-05-22T09:16:10.565Z,99815.19
2023-05-22T09:18:39.717Z,99815.78
2023-05-22T09:21:17.739Z,99819.53
2023-05-22T09:23:54.741Z,99816.63
2023-05-22T09:26:22.420Z,99813.66
2023-05-22T09:28:49.682Z,99813.19
2023-05-22T09:31:17.380Z,99809.41
2023-05-22T09:33:45.055Z,99801.00
2023-05-22T09:36:12.621Z,99809.34
2023-05-22T09:38:40.078Z,99815.12
2023-05-22T09:41:07.430Z,99813.19
2023-05-22T09:43:34.609Z,99809.41
2023-05-22T09:46:04.373Z,99813.28
2023-05-22T09:48:38.220Z,99810.78
2023-05-22T09:51:05.779Z,99808.56
2023-05-22T09:53:33.167Z,99803.00
2023-05-22T09:56:00.609Z,99803.34
2023-05-22T09:58:29.900Z,99802.37
2023-05-22T10:00:57.637Z,99811.41
2023-05-22T10:03:26.453Z,99796.84
2023-05-22T10:05:54.435Z,99803.25
2023-05-22T10:08:22.105Z,99796.34
2023-05-22T10:10:51.456Z,99799.72
2023-05-22T10:13:18.870Z,99800.06
2023-05-22T10:15:47.031Z,99793.63
2023-05-22T10:18:16.010Z,99791.34
2023-05-22T10:20:43.536Z,99793.03
2023-05-22T10:23:11.207Z,99787.25
2023-05-22T10:25:38.964Z,99783.97
2023-05-22T10:28:07.030Z,99782.34
2023-05-22T10:30:41.124Z,99778.66
2023-05-22T10:33:11.706Z,99783.62
2023-05-22T10:35:41.374Z,99775.25
2023-05-22T10:38:27.790Z,99767.81
2023-05-22T10:40:54.975Z,99760.66
2023-05-22T10:43:22.720Z,99766.44
2023-05-22T10:45:50.025Z,99761.56
2023-05-22T10:48:17.308Z,99762.56
2023-05-22T10:50:52.905Z,99764.16
2023-05-22T10:53:21.406Z,99755.69
2023-05-22T10:55:53.786Z,99754.25
2023-05-22T10:58:28.885Z,99758.00
2023-05-22T11:01:13.284Z,99750.69
2023-05-22T11:04:00.832Z,99746.44
2023-05-22T11:06:35.944Z,99746.44
2023-05-22T11:09:18.951Z,99740.97
2023-05-22T11:11:46.913Z,99727.44
2023-05-22T11:14:16.566Z,99727.44
2023-05-22T11:16:43.928Z,99732.72
2023-05-22T11:19:22.631Z,99739.88
2023-05-22T11:21:51.147Z,99730.19
2023-05-22T11:24:18.979Z,99723.78
2023-05-22T11:26:53.710Z,99726.41
2023-05-22T11:29:21.311Z,99724.31
2023-05-22T11:31:48.797Z,99725.75
2023-05-22T11:34:16.328Z,99723.00
2023-05-22T11:36:43.906Z,99715.72
2023-05-22T11:39:14.744Z,99711.16
2023-05-22T11:41:41.958Z,99709.19
2023-05-22T11:44:09.652Z,99707.41
2023-05-22T11:46:39.415Z,99710.66
2023-05-22T11:49:07.154Z,99708.59
2023-05-22T11:51:34.702Z,99707.38
2023-05-22T11:54:02.001Z,99706.50
2023-05-22T11:56:29.744Z,99700.00
2023-05-22T11:58:57.246Z,99705.03
2023-05-22T12:01:24.466Z,99706.56
2023-05-22T12:03:52.124Z,99693.22
2023-05-22T12:06:19.386Z,99696.69
2023-05-22T12:08:46.625Z,99701.03
2023-05-22T12:11:14.081Z,99684.44
2023-05-22T12:13:41.415Z,99693.06
2023-05-22T12:16:18.802Z,99686.19
2023-05-22T12:18:46.387Z,99688.37
2023-05-22T12:21:13.860Z,99691.44
2023-05-22T12:23:51.165Z,99673.78
2023-05-22T12:26:19.597Z,99680.56
2023-05-22T12:28:47.057Z,99671.81
2023-05-22T12:31:22.106Z,99673.75
2023-05-22T12:33:49.904Z,99664.94
2023-05-22T12:36:17.141Z,99673.09
2023-05-22T12:38:44.449Z,99665.59
2023-05-22T12:41:11.953Z,99663.25
2023-05-22T12:43:39.158Z,99659.63
2023-05-22T12:46:06.501Z,99658.47
2023-05-22T12:48:34.116Z,99648.63
2023-05-22T12:51:01.566Z,99653.13
2023-05-22T12:53:29.024Z,99652.88
2023-05-22T12:55:56.617Z,99648.41
2023-05-22T12:58:23.854Z,99642.19
2023-05-22T13:00:51.086Z,99637.78
2023-05-22T13:03:18.663Z,99644.59
2023-05-22T13:05:45.975Z,99633.75
2023-05-22T13:08:13.206Z,99632.16
2023-05-22T13:10:40.814Z,99628.25
2023-05-22T13:13:08.015Z,99626.87
2023-05-22T13:15:36.307Z,99630.97
2023-05-22T13:18:04.296Z,99623.41
2023-05-22T13:20:31.704Z,99620.78
2023-05-22T13:22:58.964Z,99618.03
2023-05-22T13:25:26.503Z,99607.19
2023-05-22T13:27:53.723Z,99622.13
2023-05-22T13:30:21.124Z,99622.34
2023-05-22T13:32:48.842Z,99610.31
2023-05-22T13:35:16.315Z,99609.91
2023-05-22T13:37:43.691Z,99611.72
2023-05-22T13:40:11.409Z,99605.16
2023-05-22T13:42:39.052Z,99607.00
2023-05-22T13:45:06.576Z,99606.91
2023-05-22T13:47:34.286Z,99605.28
2023-05-22T13:50:02.100Z,99603.72
2023-05-22T13:52:29.970Z,99607.50
2023-05-22T13:54:57.808Z,99605.50
2023-05-22T13:57:24.990Z,99608.06
2023-05-22T13:59:52.405Z,99605.25
2023-05-22T14:02:20.911Z,99599.69
2023-05-22T14:04:49.066Z,99590.09
2023-05-22T14:07:16.979Z,99592.22
2023-05-22T14:09:46.049Z,99593.53
2023-05-22T14:12:13.987Z,99598.78
2023-05-22T14:14:41.322Z,99594.88
2023-05-22T14:17:09.130Z,99589.09
2023-05-22T14:19:38.170Z,99587.16
2023-05-22T14:22:05.376Z,99586.94
2023-05-22T14:24:32.665Z,99577.25
2023-05-22T14:27:00.099Z,99584.44
2023-05-22T14:29:27.964Z,99576.72
2023-05-22T14:31:55.605Z,99575.72
2023-05-22T14:34:23.122Z,99582.50
2023-05-22T14:36:50.366Z,99586.94
2023-05-22T14:39:17.626Z,99590.19
2023-05-22T14:41:45.108Z,99574.56
2023-05-22T14:44:12.325Z,99577.41
2023-05-22T14:46:39.611Z,99577.69
2023-05-22T14:49:07.594Z,99569.13
2023-05-22T14:51:34.993Z,99577.78
2023-05-22T14:54:02.240Z,99571.78
2023-05-22T14:56:29.756Z,99567.63
2023-05-22T14:58:57.473Z,99565.28
2023-05-22T15:01:24.770Z,99566.63
2023-05-22T15:03:52.407Z,99568.19
2023-05-22T15:06:19.669Z,99568.94
2023-05-22T15:08:46.946Z,99573.94
2023-05-22T15:11:14.456Z,99570.44
2023-05-22T15:13:41.739Z,99570.22
2023-05-22T15:16:09.086Z,99570.38
2023-05-22T15:18:36.609Z,99576.28
2023-05-22T15:21:04.220Z,99562.75
2023-05-22T15:23:31.637Z,99570.66
2023-05-22T15:25:59.198Z,99565.56
2023-05-22T15:28:26.415Z,99551.66
2023-05-22T15:30:53.597Z,99545.94
2023-05-22T15:33:21.747Z,99542.34
2023-05-22T15:35:49.101Z,99545.88
2023-05-22T15:38:16.654Z,99547.03
2023-05-22T15:40:44.571Z,99555.97
2023-05-22T15:43:11.825Z,99552.09
2023-05-22T15:45:39.334Z,99548.84
2023-05-22T15:48:07.297Z,99550.03
2023-05-22T15:50:34.674Z,99550.25
2023-05-22T15:53:02.041Z,99553.22
2023-05-22T15:55:29.592Z,99550.28
2023-05-22T15:57:57.786Z,99539.97
2023-05-22T16:00:26.070Z,99543.34
2023-05-22T16:02:54.037Z,99545.81
2023-05-22T16:05:21.516Z,99538.91
2023-05-22T16:07:48.732Z,99544.22
2023-05-22T16:10:16.239Z,99540.38
2023-05-22T16:12:43.475Z,99548.91
2023-05-22T16:15:10.948Z,99548.09
2023-05-22T16:17:38.971Z,99550.41
2023-05-22T16:20:07.072Z,99550.47
2023-05-22T16:22:47.180Z,99547.34
2023-05-22T16:25:18.530Z,99551.84
2023-05-22T16:27:45.791Z,99548.44
2023-05-22T16:30:14.878Z,99542.09
2023-05-22T16:32:43.090Z,99546.41
2023-05-22T16:35:11.229Z,99553.94
2023-05-22T16:37:38.429Z,99556.75
2023-05-22T16:40:07.952Z,99550.47
2023-05-22T16:42:36.393Z,99551.63
2023-05-22T16:45:04.171Z,99543.25
2023-05-22T16:47:33.235Z,99549.25
2023-05-22T16:50:00.515Z,99544.81
2023-05-22T16:52:27.737Z,99547.59
2023-05-22T16:54:55.306Z,99539.91
2023-05-22T16:57:22.539Z,99551.31
2023-05-22T16:59:49.769Z,99553.97
2023-05-22T17:02:17.358Z,99551.56
2023-05-22T17:04:44.648Z,99561.31
2023-05-22T17:07:14.126Z,99566.34
2023-05-22T17:09:41.669Z,99565.91
2023-05-22T17:12:09.073Z,99564.44
2023-05-22T17:14:36.375Z,99567.56
2023-05-22T17:17:03.894Z,99562.78
2023-05-22T17:19:32.285Z,99571.53
2023-05-22T17:21:59.955Z,99572.22
2023-05-22T17:24:27.869Z,99563.47
2023-05-22T17:26:55.124Z,99572.03
2023-05-22T17:29:22.381Z,99571.81
2023-05-22T17:31:50.011Z,99562.88
2023-05-22T17:34:17.450Z,99567.03
2023-05-22T17:36:45.179Z,99566.37
2023-05-22T17:39:12.831Z,99566.56
2023-05-22T17:41:40.071Z,99573.19
2023-05-22T17:44:07.375Z,99580.81
2023-05-22T17:46:35.061Z,99570.03
2023-05-22T17:49:02.682Z,99580.78
2023-05-22T17:51:29.882Z,99582.87
2023-05-22T17:53:59.013Z,99586.47
2023-05-22T17:56:26.664Z,99587.59
2023-05-22T17:58:53.944Z,99584.19
2023-05-22T18:01:21.494Z,99589.19
2023-05-22T18:03:49.275Z,99587.09
2023-05-22T18:06:16.739Z,99597.78
2023-05-22T18:08:44.196Z,99597.91
2023-05-22T18:11:11.671Z,99607.81
2023-05-22T18:13:38.851Z,99609.16
2023-05-22T18:16:06.270Z,99612.44
2023-05-22T18:18:33.778Z,99618.84
2023-05-22T18:21:01.963Z,99618.22
2023-05-22T18:23:29.163Z,99625.78
2023-05-22T18:25:57.347Z,99623.59
2023-05-22T18:28:26.608Z,99621.28
2023-05-22T18:30:53.920Z,99617.81
2023-05-22T18:33:22.829Z,99622.59
2023-05-22T18:35:50.148Z,99614.91
2023-05-22T18:38:17.637Z,99621.81
2023-05-22T18:40:46.126Z,99618.78
2023-05-22T18:43:13.428Z,99615.72
2023-05-22T18:45:40.634Z,99609.94
2023-05-22T18:48:08.356Z,99607.16
2023-05-22T18:50:35.767Z,99603.59
2023-05-22T18:53:02.958Z,99604.97
2023-05-22T18:55:30.493Z,99598.69
2023-05-22T18:57:57.738Z,99614.84
2023-05-22T19:00:25.053Z,99607.59
2023-05-22T19:02:52.602Z,99615.16
2023-05-22T19:05:20.183Z,99617.25
2023-05-22T19:07:47.397Z,99615.19
2023-05-22T19:10:15.047Z,99618.63
2023-05-22T19:12:42.293Z,99618.84
2023-05-22T19:15:09.836Z,99628.06
2023-05-22T19:17:37.405Z,99625.28
2023-05-22T19:20:07.391Z,99634.41
2023-05-22T19:22:34.864Z,99637.09
2023-05-22T19:25:03.075Z,99641.31
2023-05-22T19:27:31.000Z,99644.41
2023-05-22T19:29:58.210Z,99641.34
2023-05-22T19:32:27.410Z,99642.69
2023-05-22T19:34:55.078Z,99649.72
2023-05-22T19:37:22.413Z,99655.22
2023-05-22T19:39:49.927Z,99652.03
2023-05-22T19:42:18.346Z,99653.31
2023-05-22T19:44:46.019Z,99657.56
2023-05-22T19:47:13.892Z,99657.66
2023-05-22T19:49:41.217Z,99651.44
2023-05-22T19:52:08.528Z,99647.19
2023-05-22T19:54:37.897Z,99654.50
2023-05-22T19:57:05.123Z,99660.78
2023-05-22T19:59:34.185Z,99657.56
2023-05-22T20:02:04.030Z,99663.34
2023-05-22T20:04:31.736Z,99664.22
2023-05-22T20:06:59.043Z,99665.16
2023-05-22T20:09:26.975Z,99669.38
2023-05-22T20:11:54.553Z,99665.13
2023-05-22T20:14:21.933Z,99670.28
2023-05-22T20:16:49.245Z,99660.81
2023-05-22T20:19:17.623Z,99657.97
2023-05-22T20:21:44.904Z,99663.41
2023-05-22T20:24:17.414Z,99656.53
2023-05-22T20:26:44.962Z,99653.91
2023-05-22T20:29:13.084Z,99653.03
2023-05-22T20:31:40.353Z,99651.88
2023-05-22T20:34:09.314Z,99646.38
2023-05-22T20:36:36.689Z,99638.97
2023-05-22T20:39:03.914Z,99647.97
2023-05-22T20:41:31.716Z,99652.91
2023-05-22T20:43:59.225Z,99652.19
2023-05-22T20:46:26.915Z,99654.78
2023-05-22T20:48:54.513Z,99654.78
2023-05-22T20:51:21.647Z,99652.19
2023-05-22T20:53:50.183Z,99651.19
2023-05-22T20:56:17.892Z,99650.16
2023-05-22T20:58:45.342Z,99653.66
2023-05-22T21:01:12.838Z,99658.97
2023-05-22T21:03:40.603Z,99658.31
2023-05-22T21:06:07.880Z,99653.69
2023-05-22T21:08:35.127Z,99651.03
2023-05-22T21:11:02.648Z,99651.09
2023-05-22T21:13:29.845Z,99648.56
2023-05-22T21:15:57.067Z,99651.16
2023-05-22T21:18:24.614Z,99648.34
2023-05-22T21:20:51.790Z,99649.97
2023-05-22T21:23:18.992Z,99645.47
2023-05-22T21:25:46.469Z,99650.94
2023-05-22T21:28:14.677Z,99648.13
2023-05-22T21:30:42.121Z,99640.47
2023-05-22T21:33:09.773Z,99647.69
2023-05-22T21:35:38.008Z,99645.00
2023-05-22T21:38:05.437Z,99647.75
2023-05-22T21:40:33.016Z,99649.53
2023-05-22T21:43:00.182Z,99653.81
2023-05-22T21:45:27.385Z,99655.41
2023-05-22T21:47:54.974Z,99661.88
2023-05-22T21:50:22.232Z,99652.19
2023-05-22T21:52:49.596Z,99653.84
2023-05-22T21:55:17.302Z,99650.13
2023-05-22T21:57:45.873Z,99659.56
2023-05-22T22:00:13.977Z,99656.31
2023-05-22T22:02:41.861Z,99653.03
2023-05-22T22:05:11.673Z,99655.47
2023-05-22T22:07:39.131Z,99652.91
2023-05-22T22:10:07.658Z,99643.25
2023-05-22T22:12:35.080Z,99647.53
2023-05-22T22:15:02.552Z,99651.78
2023-05-22T22:17:30.368Z,99652.47
2023-05-22T22:19:58.099Z,99647.53
2023-05-22T22:22:25.635Z,99647.66
2023-05-22T22:24:53.407Z,99652.94
2023-05-22T22:27:20.861Z,99658.16
2023-05-22T22:29:48.495Z,99653.72
2023-05-22T22:32:16.305Z,99655.50
2023-05-22T22:34:45.239Z,99657.56
2023-05-22T22:37:13.952Z,99656.94
2023-05-22T22:39:41.449Z,99654.06
2023-05-22T22:42:08.676Z,99652.41
2023-05-22T22:44:36.304Z,99657.81
2023-05-22T22:47:04.713Z,99659.72
2023-05-22T22:49:32.173Z,99646.91
2023-05-22T22:51:59.586Z,99649.41
2023-05-22T22:54:27.300Z,99644.25
2023-05-22T22:56:54.944Z,99647.69
2023-05-22T22:59:22.395Z,99644.50
2023-05-22T23:01:50.149Z,99658.75
2023-05-22T23:04:17.726Z,99647.31
2023-05-22T23:06:46.151Z,99647.75
2023-05-22T23:09:14.763Z,99649.06
2023-05-22T23:11:42.195Z,99634.16
2023-05-22T23:14:09.912Z,99634.03
2023-05-22T23:16:40.853Z,99628.47
2023-05-22T23:19:10.334Z,99635.47
2023-05-22T23:21:38.109Z,99637.84
2023-05-22T23:24:05.750Z,99633.66
2023-05-22T23:26:33.577Z,99629.25
2023-05-22T23:29:01.350Z,99632.16
2023-05-22T23:31:30.736Z,99636.63
2023-05-22T23:33:58.531Z,99645.63
2023-05-22T23:36:26.020Z,99641.50
2023-05-22T23:38:53.237Z,99638.25
2023-05-22T23:41:20.426Z,99641.34
2023-05-22T23:43:47.883Z,99646.66
2023-05-22T23:46:15.104Z,99635.56
2023-05-22T23:48:42.544Z,99643.50
2023-05-22T23:51:10.131Z,99640.28
2023-05-22T23:53:37.536Z,99650.81
2023-05-22T23:56:04.823Z,99644.16
2023-05-22T23:58:32.404Z,99653.56
